Language selection

My Weather Profile Weather Topics  | 

Atlantic - Newfoundland: Past 24 Hour Conditions

 

East Chedabucto Bay - 44488

03:00 AM ADT 07 May 2021Buoy position: 45.45N 60.95W
Disclaimer

This table is a summary of hourly weather conditions for the past 24 hours.
Please note that these observations might not always be representative of weather conditions over their associated marine area.

Date / Time
(ADT)
Wind(knots) Wave height(m) Wave period(s) Pressure(kPa) Air tempC) Water tempC)
07 May 2021
3:00 WNW 21 gust 28 1.7 7.9 100.7 5 3
2:00 WNW 22 gust 26 1.6 7.4 100.6 5 3
1:00 WNW 22 gust 28 1.7 7.9 100.5 5 3
0:00 WNW 10 gust 12 1.6 8.1 100.4 4 3
06 May 2021
23:00 WNW 7 gust 9 1.7 8.2 100.4 4 3
22:00 NW 11 gust 14 1.9 8.0 100.3 5 3
21:00 NW 12 gust 16 2.1 8.0 100.2 5 3
20:00 NNW 12 gust 17 2.2 7.5 100.0 5 3
19:00 NNW 11 gust 15 2.7 8.1 99.9 5 3
18:00 NE 9 gust 12 3.0 8.0 99.8 4 3
17:00 ENE 15 gust 17 2.9 7.8 99.8 4 3
16:00 ENE 18 gust 23 2.7 7.4 99.8 4 4
15:00 ENE 20 gust 24 2.7 6.9 99.9 4 4
14:00 ENE 22 gust 27 2.6 6.4 99.9 4 4
13:00 ENE 22 gust 26 2.1 5.8 100.1 4 4
12:00 ENE 22 gust 26 2.0 5.7 100.1 4 4
11:00 ENE 24 gust 28 1.8 5.4 100.2 4 4
10:00 ENE 23 gust 28 1.5 5.0 100.3 4 4
9:00 ENE 23 gust 29 1.4 4.8 100.4 4 4
8:00 ENE 24 gust 29 1.2 4.2 100.4 4 4
7:00 ENE 20 gust 24 0.9 4.0 100.5 4 4
6:00 ENE 16 gust 19 0.9 4.4 100.6 4 4
5:00 ENE 17 gust 19 0.8 4.6 100.6 4 4
4:00 ENE 15 gust 17 0.7 4.0 100.8 4 4
3:00 ENE 13 gust 15 0.6 4.7 100.8 4 4

Zoom-in to make a selection

Map of Atlantic - Newfoundland marine weather areas Banquereau - 44139 East Chedabucto Bay - 44488 West Chedabucto Bay - 44489 Blanc-Sablon Airport Cap Whittle Chevery Natashquan Airport Heath Point Îles de la Madeleine Airport Miscou Island Eskasoni (First Nations) Grand Étang Ingonish Beach North Mountain St.Paul Island J.A. Douglas McCurdy Sydney Airport Charlottetown Airport East Point North Cape Argentia Bonavista Burgeo Cape Race Corner Brook Daniel's Harbour Englee Ferolle Point La Scie Port aux Basques Rocky Harbour Sagona Island St. Anthony Airport St. John's Int'l Airport St. Lawrence Stephenville Airport Twillingate Winterland Branch Hill Wreckhouse Grates Cove Pool's Island Marticot Island Long Pond Cartwright Airport Mary's Harbour
Legend:
buoy Buoy
land station Land Station

Atlantic - Newfoundland Area

Another Region

What we are doing

Date modified: